sensor_id;sensor_type;location;lat;lon;timestamp;P1;durP1;ratioP1;P2;durP2;ratioP2
42724;SDS011;28369;44.046;23.014;2022-07-06T00:02:25;26.13;;;23.45;;
42724;SDS011;28369;44.046;23.014;2022-07-06T00:04:50;29.17;;;22.40;;
42724;SDS011;28369;44.046;23.014;2022-07-06T00:07:16;27.48;;;22.85;;
42724;SDS011;28369;44.046;23.014;2022-07-06T00:09:42;26.05;;;23.23;;
42724;SDS011;28369;44.046;23.014;2022-07-06T00:12:07;26.70;;;23.52;;
42724;SDS011;28369;44.046;23.014;2022-07-06T00:14:34;29.73;;;22.95;;
42724;SDS011;28369;44.046;23.014;2022-07-06T00:16:59;27.42;;;23.25;;
42724;SDS011;28369;44.046;23.014;2022-07-06T00:19:25;26.65;;;22.35;;
42724;SDS011;28369;44.046;23.014;2022-07-06T00:21:50;24.42;;;21.88;;
42724;SDS011;28369;44.046;23.014;2022-07-06T00:24:16;23.42;;;20.98;;
42724;SDS011;28369;44.046;23.014;2022-07-06T00:26:43;23.80;;;21.05;;
42724;SDS011;28369;44.046;23.014;2022-07-06T00:29:09;22.45;;;20.00;;
42724;SDS011;28369;44.046;23.014;2022-07-06T00:31:35;24.58;;;20.00;;
42724;SDS011;28369;44.046;23.014;2022-07-06T00:34:00;22.00;;;18.77;;
42724;SDS011;28369;44.046;23.014;2022-07-06T00:36:26;22.42;;;18.58;;
42724;SDS011;28369;44.046;23.014;2022-07-06T00:38:52;22.50;;;20.35;;
42724;SDS011;28369;44.046;23.014;2022-07-06T00:41:21;21.90;;;19.55;;
42724;SDS011;28369;44.046;23.014;2022-07-06T00:43:47;25.00;;;20.08;;
42724;SDS011;28369;44.046;23.014;2022-07-06T00:46:17;23.67;;;19.70;;
42724;SDS011;28369;44.046;23.014;2022-07-06T00:48:43;23.55;;;20.05;;
42724;SDS011;28369;44.046;23.014;2022-07-06T00:51:09;21.75;;;19.08;;
42724;SDS011;28369;44.046;23.014;2022-07-06T00:53:36;22.48;;;20.15;;
42724;SDS011;28369;44.046;23.014;2022-07-06T00:56:02;20.67;;;18.25;;
42724;SDS011;28369;44.046;23.014;2022-07-06T00:58:28;23.15;;;18.75;;
42724;SDS011;28369;44.046;23.014;2022-07-06T01:00:53;20.30;;;17.90;;
42724;SDS011;28369;44.046;23.014;2022-07-06T01:03:19;19.35;;;17.35;;
42724;SDS011;28369;44.046;23.014;2022-07-06T01:05:44;18.83;;;16.90;;
42724;SDS011;28369;44.046;23.014;2022-07-06T01:08:10;18.17;;;16.27;;
42724;SDS011;28369;44.046;23.014;2022-07-06T01:10:37;18.42;;;16.38;;
42724;SDS011;28369;44.046;23.014;2022-07-06T01:13:02;19.35;;;17.30;;
42724;SDS011;28369;44.046;23.014;2022-07-06T01:15:28;17.60;;;15.80;;
42724;SDS011;28369;44.046;23.014;2022-07-06T01:17:53;18.25;;;16.38;;
42724;SDS011;28369;44.046;23.014;2022-07-06T01:20:23;19.20;;;16.95;;
42724;SDS011;28369;44.046;23.014;2022-07-06T01:22:50;19.35;;;17.17;;
42724;SDS011;28369;44.046;23.014;2022-07-06T01:25:17;18.92;;;16.92;;
42724;SDS011;28369;44.046;23.014;2022-07-06T01:27:44;20.90;;;16.73;;
42724;SDS011;28369;44.046;23.014;2022-07-06T01:30:10;19.58;;;17.30;;
42724;SDS011;28369;44.046;23.014;2022-07-06T01:32:38;18.60;;;16.33;;
42724;SDS011;28369;44.046;23.014;2022-07-06T01:35:06;18.83;;;17.13;;
42724;SDS011;28369;44.046;23.014;2022-07-06T01:37:33;20.17;;;16.40;;
42724;SDS011;28369;44.046;23.014;2022-07-06T01:39:59;18.20;;;16.30;;
42724;SDS011;28369;44.046;23.014;2022-07-06T01:42:26;23.55;;;16.65;;
42724;SDS011;28369;44.046;23.014;2022-07-06T01:44:52;17.17;;;15.48;;
42724;SDS011;28369;44.046;23.014;2022-07-06T01:47:18;19.88;;;16.98;;
42724;SDS011;28369;44.046;23.014;2022-07-06T01:49:44;18.15;;;16.10;;
42724;SDS011;28369;44.046;23.014;2022-07-06T01:52:09;23.80;;;16.75;;
42724;SDS011;28369;44.046;23.014;2022-07-06T01:54:35;22.17;;;17.50;;
42724;SDS011;28369;44.046;23.014;2022-07-06T01:57:00;23.98;;;17.27;;
42724;SDS011;28369;44.046;23.014;2022-07-06T01:59:26;18.40;;;16.63;;
42724;SDS011;28369;44.046;23.014;2022-07-06T02:01:52;20.27;;;17.15;;
42724;SDS011;28369;44.046;23.014;2022-07-06T02:04:20;20.63;;;17.92;;
42724;SDS011;28369;44.046;23.014;2022-07-06T02:06:46;23.73;;;18.88;;
42724;SDS011;28369;44.046;23.014;2022-07-06T02:09:11;18.77;;;16.88;;
42724;SDS011;28369;44.046;23.014;2022-07-06T02:11:37;19.45;;;17.42;;
42724;SDS011;28369;44.046;23.014;2022-07-06T02:14:02;20.05;;;17.13;;
42724;SDS011;28369;44.046;23.014;2022-07-06T02:16:28;19.55;;;16.83;;
42724;SDS011;28369;44.046;23.014;2022-07-06T02:18:53;20.98;;;17.50;;
42724;SDS011;28369;44.046;23.014;2022-07-06T02:21:19;25.52;;;18.17;;
42724;SDS011;28369;44.046;23.014;2022-07-06T02:23:44;21.73;;;19.35;;
42724;SDS011;28369;44.046;23.014;2022-07-06T02:26:13;20.58;;;17.30;;
42724;SDS011;28369;44.046;23.014;2022-07-06T02:28:39;26.90;;;19.48;;
42724;SDS011;28369;44.046;23.014;2022-07-06T02:31:04;21.80;;;19.52;;
42724;SDS011;28369;44.046;23.014;2022-07-06T02:33:30;26.83;;;20.10;;
42724;SDS011;28369;44.046;23.014;2022-07-06T02:35:56;24.42;;;20.77;;
42724;SDS011;28369;44.046;23.014;2022-07-06T02:38:21;23.90;;;21.23;;
42724;SDS011;28369;44.046;23.014;2022-07-06T02:40:47;22.67;;;19.75;;
42724;SDS011;28369;44.046;23.014;2022-07-06T02:43:13;23.80;;;21.20;;
42724;SDS011;28369;44.046;23.014;2022-07-06T02:45:38;23.90;;;20.73;;
42724;SDS011;28369;44.046;23.014;2022-07-06T02:48:04;23.45;;;20.85;;
42724;SDS011;28369;44.046;23.014;2022-07-06T02:50:29;28.73;;;21.48;;
42724;SDS011;28369;44.046;23.014;2022-07-06T02:52:55;25.90;;;20.95;;
42724;SDS011;28369;44.046;23.014;2022-07-06T02:55:21;22.63;;;20.40;;
42724;SDS011;28369;44.046;23.014;2022-07-06T02:57:46;22.75;;;20.52;;
42724;SDS011;28369;44.046;23.014;2022-07-06T03:00:12;22.02;;;19.83;;
42724;SDS011;28369;44.046;23.014;2022-07-06T03:02:38;21.77;;;18.75;;
42724;SDS011;28369;44.046;23.014;2022-07-06T03:05:04;26.90;;;20.83;;
42724;SDS011;28369;44.046;23.014;2022-07-06T03:07:30;22.98;;;20.17;;
42724;SDS011;28369;44.046;23.014;2022-07-06T03:09:55;22.42;;;19.63;;
42724;SDS011;28369;44.046;23.014;2022-07-06T03:12:21;23.13;;;19.40;;
42724;SDS011;28369;44.046;23.014;2022-07-06T03:14:46;22.63;;;19.80;;
42724;SDS011;28369;44.046;23.014;2022-07-06T03:17:12;21.48;;;19.35;;
42724;SDS011;28369;44.046;23.014;2022-07-06T03:19:38;21.98;;;18.20;;
42724;SDS011;28369;44.046;23.014;2022-07-06T03:22:03;23.83;;;18.60;;
42724;SDS011;28369;44.046;23.014;2022-07-06T03:24:29;20.13;;;17.83;;
42724;SDS011;28369;44.046;23.014;2022-07-06T03:26:54;21.10;;;19.13;;
42724;SDS011;28369;44.046;23.014;2022-07-06T03:29:26;22.80;;;18.95;;
42724;SDS011;28369;44.046;23.014;2022-07-06T03:31:52;22.48;;;20.25;;
42724;SDS011;28369;44.046;23.014;2022-07-06T03:34:20;22.88;;;20.20;;
42724;SDS011;28369;44.046;23.014;2022-07-06T03:36:46;21.95;;;18.88;;
42724;SDS011;28369;44.046;23.014;2022-07-06T03:39:11;28.40;;;19.55;;
42724;SDS011;28369;44.046;23.014;2022-07-06T03:41:37;20.58;;;18.13;;
42724;SDS011;28369;44.046;23.014;2022-07-06T03:44:02;18.40;;;16.55;;
42724;SDS011;28369;44.046;23.014;2022-07-06T03:46:28;16.95;;;15.10;;
42724;SDS011;28369;44.046;23.014;2022-07-06T03:48:54;16.80;;;15.10;;
42724;SDS011;28369;44.046;23.014;2022-07-06T03:51:20;18.65;;;14.57;;
42724;SDS011;28369;44.046;23.014;2022-07-06T03:53:45;17.70;;;13.50;;
42724;SDS011;28369;44.046;23.014;2022-07-06T03:56:11;14.35;;;12.48;;
42724;SDS011;28369;44.046;23.014;2022-07-06T03:58:55;14.20;;;12.80;;
42724;SDS011;28369;44.046;23.014;2022-07-06T04:01:21;18.75;;;13.27;;
42724;SDS011;28369;44.046;23.014;2022-07-06T04:03:47;15.15;;;13.45;;
42724;SDS011;28369;44.046;23.014;2022-07-06T04:06:13;14.30;;;12.95;;
42724;SDS011;28369;44.046;23.014;2022-07-06T04:08:38;17.48;;;13.63;;
42724;SDS011;28369;44.046;23.014;2022-07-06T04:11:04;14.27;;;12.05;;
42724;SDS011;28369;44.046;23.014;2022-07-06T04:13:29;22.63;;;13.00;;
42724;SDS011;28369;44.046;23.014;2022-07-06T04:15:55;17.05;;;11.20;;
42724;SDS011;28369;44.046;23.014;2022-07-06T04:18:21;15.27;;;11.32;;
42724;SDS011;28369;44.046;23.014;2022-07-06T04:20:47;16.30;;;11.13;;
42724;SDS011;28369;44.046;23.014;2022-07-06T04:23:13;13.77;;;10.63;;
42724;SDS011;28369;44.046;23.014;2022-07-06T04:25:38;12.75;;;11.50;;
42724;SDS011;28369;44.046;23.014;2022-07-06T04:28:04;14.35;;;11.00;;
42724;SDS011;28369;44.046;23.014;2022-07-06T04:30:29;13.13;;;11.85;;
42724;SDS011;28369;44.046;23.014;2022-07-06T04:32:55;13.18;;;11.50;;
42724;SDS011;28369;44.046;23.014;2022-07-06T04:35:21;12.18;;;10.95;;
42724;SDS011;28369;44.046;23.014;2022-07-06T04:37:47;19.67;;;11.85;;
42724;SDS011;28369;44.046;23.014;2022-07-06T04:40:13;14.55;;;11.90;;
42724;SDS011;28369;44.046;23.014;2022-07-06T04:42:39;13.77;;;12.13;;
42724;SDS011;28369;44.046;23.014;2022-07-06T04:45:05;15.52;;;12.55;;
42724;SDS011;28369;44.046;23.014;2022-07-06T04:47:30;15.90;;;13.05;;
42724;SDS011;28369;44.046;23.014;2022-07-06T04:49:56;19.25;;;13.32;;
42724;SDS011;28369;44.046;23.014;2022-07-06T04:52:23;13.23;;;11.90;;
42724;SDS011;28369;44.046;23.014;2022-07-06T04:54:49;14.68;;;10.85;;
42724;SDS011;28369;44.046;23.014;2022-07-06T04:57:14;12.63;;;9.82;;
42724;SDS011;28369;44.046;23.014;2022-07-06T04:59:40;11.88;;;9.88;;
42724;SDS011;28369;44.046;23.014;2022-07-06T05:02:05;9.35;;;8.32;;
42724;SDS011;28369;44.046;23.014;2022-07-06T05:04:31;11.45;;;9.52;;
42724;SDS011;28369;44.046;23.014;2022-07-06T05:06:57;10.52;;;9.43;;
42724;SDS011;28369;44.046;23.014;2022-07-06T05:09:23;10.65;;;9.38;;
42724;SDS011;28369;44.046;23.014;2022-07-06T05:11:49;11.32;;;9.52;;
42724;SDS011;28369;44.046;23.014;2022-07-06T05:14:17;13.30;;;9.45;;
42724;SDS011;28369;44.046;23.014;2022-07-06T05:16:42;11.90;;;10.15;;
42724;SDS011;28369;44.046;23.014;2022-07-06T05:19:08;10.50;;;9.57;;
42724;SDS011;28369;44.046;23.014;2022-07-06T05:21:34;12.40;;;10.27;;
42724;SDS011;28369;44.046;23.014;2022-07-06T05:23:59;11.88;;;10.32;;
42724;SDS011;28369;44.046;23.014;2022-07-06T05:26:25;11.68;;;10.32;;
42724;SDS011;28369;44.046;23.014;2022-07-06T05:28:50;12.85;;;11.52;;
42724;SDS011;28369;44.046;23.014;2022-07-06T05:31:16;12.65;;;11.27;;
42724;SDS011;28369;44.046;23.014;2022-07-06T05:33:41;13.20;;;10.55;;
42724;SDS011;28369;44.046;23.014;2022-07-06T05:36:07;13.95;;;11.13;;
42724;SDS011;28369;44.046;23.014;2022-07-06T05:38:42;12.82;;;11.38;;
42724;SDS011;28369;44.046;23.014;2022-07-06T05:41:13;16.13;;;12.93;;
42724;SDS011;28369;44.046;23.014;2022-07-06T05:43:39;14.05;;;12.75;;
42724;SDS011;28369;44.046;23.014;2022-07-06T05:46:13;14.38;;;12.82;;
42724;SDS011;28369;44.046;23.014;2022-07-06T05:48:44;16.57;;;13.77;;
42724;SDS011;28369;44.046;23.014;2022-07-06T05:51:28;22.92;;;17.00;;
42724;SDS011;28369;44.046;23.014;2022-07-06T05:53:54;18.38;;;16.48;;
42724;SDS011;28369;44.046;23.014;2022-07-06T05:56:19;20.35;;;18.15;;
42724;SDS011;28369;44.046;23.014;2022-07-06T05:58:45;18.58;;;15.55;;
42724;SDS011;28369;44.046;23.014;2022-07-06T06:01:10;20.88;;;18.85;;
42724;SDS011;28369;44.046;23.014;2022-07-06T06:03:36;18.90;;;16.95;;
42724;SDS011;28369;44.046;23.014;2022-07-06T06:06:01;21.65;;;19.67;;
42724;SDS011;28369;44.046;23.014;2022-07-06T06:08:27;21.27;;;18.25;;
42724;SDS011;28369;44.046;23.014;2022-07-06T06:10:52;21.88;;;19.80;;
42724;SDS011;28369;44.046;23.014;2022-07-06T06:13:18;18.48;;;16.67;;
42724;SDS011;28369;44.046;23.014;2022-07-06T06:15:44;19.13;;;17.33;;
42724;SDS011;28369;44.046;23.014;2022-07-06T06:18:10;19.98;;;17.67;;
42724;SDS011;28369;44.046;23.014;2022-07-06T06:20:36;16.90;;;15.32;;
42724;SDS011;28369;44.046;23.014;2022-07-06T06:23:02;17.00;;;15.30;;
42724;SDS011;28369;44.046;23.014;2022-07-06T06:27:58;16.40;;;14.75;;
42724;SDS011;28369;44.046;23.014;2022-07-06T06:30:24;18.20;;;13.45;;
42724;SDS011;28369;44.046;23.014;2022-07-06T06:32:51;14.93;;;13.10;;
42724;SDS011;28369;44.046;23.014;2022-07-06T06:35:17;13.65;;;12.45;;
42724;SDS011;28369;44.046;23.014;2022-07-06T06:37:42;14.52;;;12.40;;
42724;SDS011;28369;44.046;23.014;2022-07-06T06:40:08;11.30;;;10.20;;
42724;SDS011;28369;44.046;23.014;2022-07-06T06:42:38;12.05;;;10.93;;
42724;SDS011;28369;44.046;23.014;2022-07-06T06:45:04;12.18;;;10.20;;
42724;SDS011;28369;44.046;23.014;2022-07-06T06:47:30;11.80;;;10.77;;
42724;SDS011;28369;44.046;23.014;2022-07-06T06:49:56;13.80;;;9.73;;
42724;SDS011;28369;44.046;23.014;2022-07-06T06:52:24;11.80;;;10.70;;
42724;SDS011;28369;44.046;23.014;2022-07-06T06:54:50;11.80;;;10.68;;
42724;SDS011;28369;44.046;23.014;2022-07-06T06:57:15;14.25;;;11.20;;
42724;SDS011;28369;44.046;23.014;2022-07-06T06:59:41;12.65;;;11.27;;
42724;SDS011;28369;44.046;23.014;2022-07-06T07:02:06;15.45;;;13.80;;
42724;SDS011;28369;44.046;23.014;2022-07-06T07:04:32;14.57;;;13.23;;
42724;SDS011;28369;44.046;23.014;2022-07-06T07:06:57;13.88;;;12.45;;
42724;SDS011;28369;44.046;23.014;2022-07-06T07:09:23;15.07;;;13.52;;
42724;SDS011;28369;44.046;23.014;2022-07-06T07:11:49;16.85;;;13.75;;
42724;SDS011;28369;44.046;23.014;2022-07-06T07:14:15;14.98;;;13.68;;
42724;SDS011;28369;44.046;23.014;2022-07-06T07:16:40;20.63;;;14.38;;
42724;SDS011;28369;44.046;23.014;2022-07-06T07:19:06;16.17;;;14.60;;
42724;SDS011;28369;44.046;23.014;2022-07-06T07:21:31;19.52;;;16.77;;
42724;SDS011;28369;44.046;23.014;2022-07-06T07:23:57;16.23;;;14.73;;
42724;SDS011;28369;44.046;23.014;2022-07-06T07:26:22;18.52;;;15.43;;
42724;SDS011;28369;44.046;23.014;2022-07-06T07:28:48;16.38;;;14.77;;
42724;SDS011;28369;44.046;23.014;2022-07-06T07:31:13;17.52;;;15.98;;
42724;SDS011;28369;44.046;23.014;2022-07-06T07:33:39;18.45;;;15.15;;
42724;SDS011;28369;44.046;23.014;2022-07-06T07:36:04;17.77;;;15.95;;
42724;SDS011;28369;44.046;23.014;2022-07-06T07:38:30;18.17;;;16.30;;
42724;SDS011;28369;44.046;23.014;2022-07-06T07:40:55;17.95;;;16.08;;
42724;SDS011;28369;44.046;23.014;2022-07-06T07:43:21;18.83;;;16.90;;
42724;SDS011;28369;44.046;23.014;2022-07-06T07:45:47;18.98;;;17.17;;
42724;SDS011;28369;44.046;23.014;2022-07-06T07:48:13;17.73;;;16.08;;
42724;SDS011;28369;44.046;23.014;2022-07-06T07:50:40;18.60;;;16.67;;
42724;SDS011;28369;44.046;23.014;2022-07-06T07:53:06;17.42;;;15.93;;
42724;SDS011;28369;44.046;23.014;2022-07-06T07:55:31;17.80;;;16.10;;
42724;SDS011;28369;44.046;23.014;2022-07-06T07:57:57;16.80;;;15.30;;
42724;SDS011;28369;44.046;23.014;2022-07-06T08:00:22;18.42;;;16.65;;
42724;SDS011;28369;44.046;23.014;2022-07-06T08:02:49;19.55;;;17.35;;
42724;SDS011;28369;44.046;23.014;2022-07-06T08:05:15;19.08;;;17.20;;
42724;SDS011;28369;44.046;23.014;2022-07-06T08:07:41;19.25;;;17.42;;
42724;SDS011;28369;44.046;23.014;2022-07-06T08:10:07;18.20;;;16.38;;
42724;SDS011;28369;44.046;23.014;2022-07-06T08:12:34;20.05;;;16.83;;
42724;SDS011;28369;44.046;23.014;2022-07-06T08:15:00;19.55;;;17.60;;
42724;SDS011;28369;44.046;23.014;2022-07-06T08:17:26;17.65;;;16.02;;
42724;SDS011;28369;44.046;23.014;2022-07-06T08:19:52;18.48;;;16.58;;
42724;SDS011;28369;44.046;23.014;2022-07-06T08:22:18;17.42;;;15.95;;
42724;SDS011;28369;44.046;23.014;2022-07-06T08:24:43;17.38;;;14.57;;
42724;SDS011;28369;44.046;23.014;2022-07-06T08:27:09;14.02;;;12.80;;
42724;SDS011;28369;44.046;23.014;2022-07-06T08:29:34;13.85;;;12.40;;
42724;SDS011;28369;44.046;23.014;2022-07-06T08:31:59;14.13;;;12.55;;
42724;SDS011;28369;44.046;23.014;2022-07-06T08:34:25;13.38;;;12.18;;
42724;SDS011;28369;44.046;23.014;2022-07-06T08:36:51;12.40;;;11.30;;
42724;SDS011;28369;44.046;23.014;2022-07-06T08:39:16;11.60;;;10.60;;
42724;SDS011;28369;44.046;23.014;2022-07-06T08:41:42;11.23;;;10.32;;
42724;SDS011;28369;44.046;23.014;2022-07-06T08:44:12;9.57;;;8.87;;
42724;SDS011;28369;44.046;23.014;2022-07-06T08:46:41;10.10;;;9.20;;
42724;SDS011;28369;44.046;23.014;2022-07-06T08:49:08;9.02;;;8.32;;
42724;SDS011;28369;44.046;23.014;2022-07-06T08:51:37;9.50;;;8.80;;
42724;SDS011;28369;44.046;23.014;2022-07-06T08:54:03;9.75;;;8.85;;
42724;SDS011;28369;44.046;23.014;2022-07-06T08:56:29;10.35;;;9.35;;
42724;SDS011;28369;44.046;23.014;2022-07-06T08:58:55;13.18;;;9.23;;
42724;SDS011;28369;44.046;23.014;2022-07-06T09:01:21;9.00;;;8.30;;
42724;SDS011;28369;44.046;23.014;2022-07-06T09:03:50;9.57;;;8.57;;
42724;SDS011;28369;44.046;23.014;2022-07-06T09:06:16;8.93;;;8.00;;
42724;SDS011;28369;44.046;23.014;2022-07-06T09:08:48;7.80;;;7.20;;
42724;SDS011;28369;44.046;23.014;2022-07-06T09:11:14;6.88;;;6.38;;
42724;SDS011;28369;44.046;23.014;2022-07-06T09:13:40;6.57;;;6.07;;
42724;SDS011;28369;44.046;23.014;2022-07-06T09:16:12;6.88;;;6.28;;
42724;SDS011;28369;44.046;23.014;2022-07-06T09:18:39;6.65;;;6.15;;
42724;SDS011;28369;44.046;23.014;2022-07-06T09:21:08;6.63;;;6.13;;
42724;SDS011;28369;44.046;23.014;2022-07-06T09:23:35;7.60;;;6.30;;
42724;SDS011;28369;44.046;23.014;2022-07-06T09:26:01;7.45;;;6.85;;
42724;SDS011;28369;44.046;23.014;2022-07-06T09:28:41;7.22;;;6.43;;
42724;SDS011;28369;44.046;23.014;2022-07-06T09:31:09;6.78;;;6.10;;
42724;SDS011;28369;44.046;23.014;2022-07-06T09:33:35;7.15;;;6.55;;
42724;SDS011;28369;44.046;23.014;2022-07-06T09:36:02;6.95;;;6.35;;
42724;SDS011;28369;44.046;23.014;2022-07-06T09:38:28;7.25;;;6.55;;
42724;SDS011;28369;44.046;23.014;2022-07-06T09:40:54;7.85;;;7.15;;
42724;SDS011;28369;44.046;23.014;2022-07-06T09:43:20;7.15;;;6.50;;
42724;SDS011;28369;44.046;23.014;2022-07-06T09:45:49;9.80;;;6.43;;
42724;SDS011;28369;44.046;23.014;2022-07-06T09:48:24;7.82;;;6.32;;
42724;SDS011;28369;44.046;23.014;2022-07-06T09:50:51;6.90;;;6.20;;
42724;SDS011;28369;44.046;23.014;2022-07-06T09:53:20;7.47;;;6.30;;
42724;SDS011;28369;44.046;23.014;2022-07-06T09:55:48;6.70;;;6.10;;
42724;SDS011;28369;44.046;23.014;2022-07-06T09:58:15;6.45;;;6.05;;
42724;SDS011;28369;44.046;23.014;2022-07-06T10:00:41;6.72;;;6.20;;
42724;SDS011;28369;44.046;23.014;2022-07-06T10:03:08;7.20;;;6.50;;
42724;SDS011;28369;44.046;23.014;2022-07-06T10:05:37;6.68;;;6.18;;
42724;SDS011;28369;44.046;23.014;2022-07-06T10:10:31;6.05;;;5.50;;
42724;SDS011;28369;44.046;23.014;2022-07-06T10:12:58;6.13;;;5.40;;
42724;SDS011;28369;44.046;23.014;2022-07-06T10:15:25;7.10;;;4.85;;
42724;SDS011;28369;44.046;23.014;2022-07-06T10:17:51;5.25;;;4.85;;
42724;SDS011;28369;44.046;23.014;2022-07-06T10:20:20;6.20;;;4.28;;
42724;SDS011;28369;44.046;23.014;2022-07-06T10:22:50;5.00;;;4.60;;
42724;SDS011;28369;44.046;23.014;2022-07-06T10:25:16;4.78;;;4.43;;
42724;SDS011;28369;44.046;23.014;2022-07-06T10:27:43;5.13;;;4.35;;
42724;SDS011;28369;44.046;23.014;2022-07-06T10:30:11;9.15;;;4.43;;
42724;SDS011;28369;44.046;23.014;2022-07-06T10:32:38;4.90;;;4.40;;
42724;SDS011;28369;44.046;23.014;2022-07-06T10:35:06;5.22;;;4.47;;
42724;SDS011;28369;44.046;23.014;2022-07-06T10:37:32;6.25;;;5.22;;
42724;SDS011;28369;44.046;23.014;2022-07-06T10:39:59;6.65;;;4.80;;
42724;SDS011;28369;44.046;23.014;2022-07-06T10:50:41;4.63;;;4.25;;
42724;SDS011;28369;44.046;23.014;2022-07-06T10:53:21;4.43;;;4.03;;
42724;SDS011;28369;44.046;23.014;2022-07-06T10:55:49;5.18;;;4.47;;
42724;SDS011;28369;44.046;23.014;2022-07-06T10:58:36;4.63;;;4.22;;
42724;SDS011;28369;44.046;23.014;2022-07-06T11:01:16;6.63;;;4.53;;
42724;SDS011;28369;44.046;23.014;2022-07-06T11:06:19;5.10;;;4.60;;
42724;SDS011;28369;44.046;23.014;2022-07-06T11:08:50;5.25;;;4.75;;
42724;SDS011;28369;44.046;23.014;2022-07-06T11:19:17;5.78;;;5.28;;
42724;SDS011;28369;44.046;23.014;2022-07-06T11:24:13;5.78;;;5.28;;
42724;SDS011;28369;44.046;23.014;2022-07-06T11:26:41;6.45;;;5.40;;
42724;SDS011;28369;44.046;23.014;2022-07-06T11:29:08;5.30;;;4.90;;
42724;SDS011;28369;44.046;23.014;2022-07-06T11:31:36;6.85;;;4.82;;
42724;SDS011;28369;44.046;23.014;2022-07-06T11:34:04;4.80;;;4.38;;
42724;SDS011;28369;44.046;23.014;2022-07-06T11:36:30;4.97;;;4.38;;
42724;SDS011;28369;44.046;23.014;2022-07-06T11:38:58;4.57;;;4.03;;
42724;SDS011;28369;44.046;23.014;2022-07-06T11:41:24;4.28;;;3.97;;
42724;SDS011;28369;44.046;23.014;2022-07-06T11:43:49;4.30;;;3.90;;
42724;SDS011;28369;44.046;23.014;2022-07-06T11:48:48;3.47;;;3.17;;
42724;SDS011;28369;44.046;23.014;2022-07-06T11:51:15;5.13;;;3.78;;
42724;SDS011;28369;44.046;23.014;2022-07-06T11:53:48;5.13;;;3.80;;
42724;SDS011;28369;44.046;23.014;2022-07-06T11:56:16;3.95;;;3.65;;
42724;SDS011;28369;44.046;23.014;2022-07-06T11:58:48;5.80;;;4.40;;
42724;SDS011;28369;44.046;23.014;2022-07-06T12:01:15;4.50;;;4.13;;
42724;SDS011;28369;44.046;23.014;2022-07-06T12:03:41;4.15;;;3.00;;
42724;SDS011;28369;44.046;23.014;2022-07-06T12:08:48;4.28;;;3.30;;
42724;SDS011;28369;44.046;23.014;2022-07-06T12:11:19;4.32;;;3.65;;
42724;SDS011;28369;44.046;23.014;2022-07-06T12:13:49;3.97;;;3.65;;
42724;SDS011;28369;44.046;23.014;2022-07-06T12:16:16;3.78;;;3.47;;
42724;SDS011;28369;44.046;23.014;2022-07-06T12:18:43;3.20;;;3.00;;
42724;SDS011;28369;44.046;23.014;2022-07-06T12:21:10;3.55;;;3.28;;
42724;SDS011;28369;44.046;23.014;2022-07-06T12:23:39;3.05;;;2.85;;
42724;SDS011;28369;44.046;23.014;2022-07-06T12:26:05;3.67;;;2.88;;
42724;SDS011;28369;44.046;23.014;2022-07-06T12:28:33;3.72;;;2.95;;
42724;SDS011;28369;44.046;23.014;2022-07-06T12:30:59;3.67;;;2.90;;
42724;SDS011;28369;44.046;23.014;2022-07-06T12:33:28;3.45;;;3.08;;
42724;SDS011;28369;44.046;23.014;2022-07-06T12:35:54;3.55;;;3.25;;
42724;SDS011;28369;44.046;23.014;2022-07-06T12:38:24;6.28;;;2.78;;
42724;SDS011;28369;44.046;23.014;2022-07-06T12:40:51;4.60;;;1.65;;
42724;SDS011;28369;44.046;23.014;2022-07-06T12:48:57;2.30;;;1.77;;
42724;SDS011;28369;44.046;23.014;2022-07-06T12:51:23;1.40;;;1.30;;
42724;SDS011;28369;44.046;23.014;2022-07-06T12:53:49;5.25;;;1.95;;
42724;SDS011;28369;44.046;23.014;2022-07-06T12:56:19;3.00;;;2.80;;
42724;SDS011;28369;44.046;23.014;2022-07-06T12:58:58;3.25;;;2.90;;
42724;SDS011;28369;44.046;23.014;2022-07-06T13:01:25;2.78;;;2.53;;
42724;SDS011;28369;44.046;23.014;2022-07-06T13:03:55;2.75;;;2.60;;
42724;SDS011;28369;44.046;23.014;2022-07-06T13:06:29;6.70;;;5.22;;
42724;SDS011;28369;44.046;23.014;2022-07-06T13:09:03;5.90;;;5.30;;
42724;SDS011;28369;44.046;23.014;2022-07-06T13:11:29;6.95;;;6.45;;
42724;SDS011;28369;44.046;23.014;2022-07-06T13:13:54;7.35;;;6.82;;
42724;SDS011;28369;44.046;23.014;2022-07-06T13:16:20;9.10;;;8.23;;
42724;SDS011;28369;44.046;23.014;2022-07-06T13:18:49;8.50;;;7.85;;
42724;SDS011;28369;44.046;23.014;2022-07-06T13:21:15;13.40;;;9.13;;
42724;SDS011;28369;44.046;23.014;2022-07-06T13:23:41;8.07;;;7.47;;
42724;SDS011;28369;44.046;23.014;2022-07-06T13:26:07;8.10;;;7.40;;
42724;SDS011;28369;44.046;23.014;2022-07-06T13:28:33;8.05;;;7.40;;
42724;SDS011;28369;44.046;23.014;2022-07-06T13:30:58;9.70;;;8.80;;
42724;SDS011;28369;44.046;23.014;2022-07-06T13:33:24;9.95;;;9.15;;
42724;SDS011;28369;44.046;23.014;2022-07-06T13:35:49;9.07;;;8.18;;
42724;SDS011;28369;44.046;23.014;2022-07-06T13:38:15;8.00;;;7.40;;
42724;SDS011;28369;44.046;23.014;2022-07-06T13:40:40;7.70;;;6.95;;
42724;SDS011;28369;44.046;23.014;2022-07-06T13:43:06;7.50;;;6.90;;
42724;SDS011;28369;44.046;23.014;2022-07-06T13:45:31;8.27;;;7.68;;
42724;SDS011;28369;44.046;23.014;2022-07-06T13:47:57;8.48;;;7.72;;
42724;SDS011;28369;44.046;23.014;2022-07-06T13:50:23;8.63;;;7.93;;
42724;SDS011;28369;44.046;23.014;2022-07-06T13:52:50;9.02;;;8.32;;
42724;SDS011;28369;44.046;23.014;2022-07-06T13:55:16;8.63;;;7.85;;
42724;SDS011;28369;44.046;23.014;2022-07-06T13:57:41;9.07;;;8.40;;
42724;SDS011;28369;44.046;23.014;2022-07-06T14:00:07;9.07;;;8.40;;
42724;SDS011;28369;44.046;23.014;2022-07-06T14:02:33;8.35;;;7.75;;
42724;SDS011;28369;44.046;23.014;2022-07-06T14:04:59;9.20;;;8.50;;
42724;SDS011;28369;44.046;23.014;2022-07-06T14:07:24;7.10;;;6.43;;
42724;SDS011;28369;44.046;23.014;2022-07-06T14:09:50;8.15;;;7.40;;
42724;SDS011;28369;44.046;23.014;2022-07-06T14:12:16;6.50;;;6.00;;
42724;SDS011;28369;44.046;23.014;2022-07-06T14:14:42;5.88;;;5.38;;
42724;SDS011;28369;44.046;23.014;2022-07-06T14:17:08;4.60;;;4.20;;
42724;SDS011;28369;44.046;23.014;2022-07-06T14:19:33;4.47;;;3.97;;
42724;SDS011;28369;44.046;23.014;2022-07-06T14:21:59;4.28;;;3.97;;
42724;SDS011;28369;44.046;23.014;2022-07-06T14:24:24;3.42;;;3.17;;
42724;SDS011;28369;44.046;23.014;2022-07-06T14:26:50;2.85;;;2.65;;
42724;SDS011;28369;44.046;23.014;2022-07-06T14:29:16;4.65;;;2.67;;
42724;SDS011;28369;44.046;23.014;2022-07-06T14:31:42;4.47;;;3.03;;
42724;SDS011;28369;44.046;23.014;2022-07-06T14:34:07;2.60;;;2.40;;
42724;SDS011;28369;44.046;23.014;2022-07-06T14:36:33;3.00;;;2.80;;
42724;SDS011;28369;44.046;23.014;2022-07-06T14:39:02;2.45;;;2.35;;
42724;SDS011;28369;44.046;23.014;2022-07-06T14:41:28;2.33;;;2.13;;
42724;SDS011;28369;44.046;23.014;2022-07-06T14:43:54;3.05;;;2.00;;
42724;SDS011;28369;44.046;23.014;2022-07-06T14:46:19;2.22;;;2.13;;
42724;SDS011;28369;44.046;23.014;2022-07-06T14:48:45;3.45;;;2.30;;
42724;SDS011;28369;44.046;23.014;2022-07-06T14:51:10;3.08;;;1.90;;
42724;SDS011;28369;44.046;23.014;2022-07-06T14:53:36;2.10;;;2.00;;